Aérodrome de Figeac - Livernon

LFCF · Lot, Occitanie, Francja

Historia METAR LFCF · Aérodrome de Figeac - Livernon

Poniżej widzisz METAR-y z ostatnich kilku dni. Wybierz rok, aby przeglądać starsze METAR-y, począwszy od roku 2007.

27 listopada 2022

Czas Kod Pogoda Temp. Widoczność Sufit Wiatr METAR/SPECI
00:30
V
2 °C 8 km - 140° 140° 2 kt METAR LFSL 262330Z AUTO 14002KT 8000 NSC 02/02 Q1025
00:00
M
2 °C 7 km - 140° 140° 2 kt METAR LFSL 262300Z AUTO 14002KT 7000 NSC 02/02 Q1025

26 listopada 2022

Czas Kod Pogoda Temp. Widoczność Sufit Wiatr METAR/SPECI
23:30
M
3 °C 6 km - Var 000° 0 kt METAR LFSL 262230Z AUTO 00000KT 6000 NSC 03/03 Q1026
23:00
L
4 °C 2,4 km - 120° 120° 2 kt METAR LFSL 262200Z AUTO 12002KT 2400 BR VV/// 04/03 Q1026
22:30
M
5 °C 5 km - 120° 120° 5 kt METAR LFSL 262130Z AUTO 12005KT 5000 BR FEW001 SCT180 05/05 Q1026
22:00
V
4 °C 9 km - 130° 130° 2 kt METAR LFSL 262100Z AUTO 13002KT 9000 NSC 04/04 Q1026 TEMPO 0300 FG VV///
21:30
L
5 °C 7 km - 130° 130° 4 kt METAR LFSL 262030Z AUTO 13004KT 7000 VV/// 05/04 Q1026 TEMPO 0300 FG
21:00
L
3 °C 10 km+ - Var Var 1 kt METAR LFSL 262000Z AUTO VRB01KT 9999 VV/// 03/03 Q1026 TEMPO 0300 FG
20:30
M
3 °C 5 km - Var 000° 0 kt METAR LFSL 261930Z AUTO 00000KT 5000 R29/1400U BR NSC 03/02 Q1026 TEMPO 0300 FG VV///
20:00
M
3 °C 6 km - Var 000° 0 kt METAR LFSL 261900Z AUTO 00000KT 6000 NSC 03/02 Q1027 TEMPO 0300 FG VV///
19:30
L
4 °C 5 km - 130° 130° 1 kt METAR LFSL 261830Z AUTO 13001KT 5000 BR VV/// 04/03 Q1027 TEMPO 0300 FG
19:00
L
4 °C 1,4 km - Var Var 2 kt METAR LFSL 261800Z AUTO VRB02KT 1800 1400 R29/1800D BR NSC 04/04 Q1027 TEMPO 0300 FG VV///
18:30
L
6 °C 750 m - Var 000° 0 kt METAR LFSL 261730Z AUTO 00000KT 5000 0750 R29/0900D BCFG NSC 06/05 Q1027 NOSIG
18:00
V
7 °C 10 km+ - 210° 210° 2 kt METAR LFSL 261700Z AUTO 21002KT CAVOK 07/06 Q1027 NOSIG
17:30
V
8 °C 10 km+ - Var Var 2 kt METAR LFSL 261630Z AUTO VRB02KT CAVOK 08/07 Q1027 NOSIG
17:00
V
9 °C 10 km+ - 090° 090° 3 kt METAR LFSL 261600Z AUTO 09003KT CAVOK 09/07 Q1027 NOSIG
16:30
V
9 °C 10 km+ - 090° 090° 4 kt METAR LFSL 261530Z AUTO 09004KT CAVOK 09/08 Q1027 NOSIG
16:00
V
9 °C 10 km+ - 050° 050° 4 kt METAR LFSL 261500Z AUTO 05004KT CAVOK 09/08 Q1027 NOSIG
15:30
V
9 °C 10 km+ - 010° 010° 3 kt METAR LFSL 261430Z AUTO 01003KT CAVOK 09/08 Q1028 NOSIG
15:00
V
9 °C 10 km+ - 300° 300° 5 kt METAR LFSL 261400Z AUTO 30005KT 240V320 CAVOK 09/08 Q1028 NOSIG
14:30
V
9 °C 10 km+ - Var Var 3 kt METAR LFSL 261330Z AUTO VRB03KT CAVOK 09/06 Q1029 NOSIG
14:00
V
9 °C 10 km+ - Var Var 2 kt METAR LFSL 261300Z AUTO VRB02KT CAVOK 09/06 Q1029 NOSIG
13:30
V
8 °C 10 km+ - Var Var 3 kt METAR LFSL 261230Z AUTO VRB03KT CAVOK 08/06 Q1029 NOSIG
13:00
V
8 °C 10 km+ 19.000 ft Var Var 3 kt METAR LFSL 261200Z AUTO VRB03KT 9999 FEW005 BKN190 08/07 Q1029 NOSIG
12:30
V
7 °C 10 km+ - 130° 130° 4 kt METAR LFSL 261130Z AUTO 13004KT 110V180 CAVOK 07/06 Q1030 NOSIG
12:00
V
6 °C 10 km+ - 130° 130° 6 kt METAR LFSL 261100Z AUTO 13006KT 100V170 9999 FEW004 SCT190 06/06 Q1030 NOSIG
11:30
L
7 °C 10 km+ 200 ft 120° 120° 6 kt METAR LFSL 261030Z AUTO 12006KT 090V160 9999 BKN002 07/07 Q1030 BECMG NSC
11:00
L
6 °C 2,4 km - 120° 120° 3 kt METAR LFSL 261000Z AUTO 12003KT 090V170 2400 R29/1200U BCFG VV/// 06/06 Q1031 BECMG 9999 NSW SCT015
10:30
L
5 °C 300 m - 130° 130° 3 kt METAR LFSL 260930Z AUTO 13003KT 100V180 0300 R29/0375N FG VV/// 05/05 Q1031 BECMG 9999 NSW SCT015
10:00
L
5 °C 250 m - 130° 130° 5 kt METAR LFSL 260900Z AUTO 13005KT 100V160 0300 0250 R29/0300N FG VV/// 05/05 Q1031 BECMG 9999 NSW SCT015
09:30
L
5 °C 200 m - 110° 110° 5 kt METAR LFSL 260830Z AUTO 11005KT 090V160 0250 0200 R29/M0200N FG VV/// 05/05 Q1031 BECMG 9999 NSW SCT015
09:00
L
5 °C 250 m - 130° 130° 4 kt METAR LFSL 260800Z AUTO 13004KT 090V160 0250 R29/0250N FG VV/// 05/05 Q1031 TEMPO 2000 BR
08:30
L
4 °C 400 m - Var Var 2 kt METAR LFSL 260730Z AUTO VRB02KT 0450 0400 R29/0550N FG VV/// 04/04 Q1031 TEMPO 2000 BR
08:00
L
4 °C 550 m - Var Var 2 kt METAR LFSL 260700Z AUTO VRB02KT 0600 0550 R29/0700D FG VV/// 04/03 Q1031 TEMPO 2000 BR
07:30
L
4 °C 350 m - Var Var 1 kt METAR LFSL 260630Z AUTO VRB01KT 0400 0350 R29/0400N FG VV/// 04/04 Q1030 TEMPO 2000 BR
07:00
L
4 °C 300 m - Var Var 1 kt METAR LFSL 260600Z AUTO VRB01KT 0350 0300 R29/0375N FG VV/// 04/04 Q1030 TEMPO 2000 BR
06:30
L
3 °C 250 m - Var Var 1 kt METAR LFSL 260530Z AUTO VRB01KT 0300 0250 R29/0300N FG VV/// 03/03 Q1030 TEMPO 2000 BR
06:00
L
3 °C 350 m - Var 000° 0 kt METAR LFSL 260500Z AUTO 00000KT 0350 R29/0375N FG VV/// 03/03 Q1030 TEMPO 2000 BR
05:30
L
3 °C 600 m - Var Var 2 kt METAR LFSL 260430Z AUTO VRB02KT 0650 0600 R29/0900U FG VV/// 03/03 Q1030 TEMPO 2000 BR
05:00
L
3 °C 650 m - 080° 080° 1 kt METAR LFSL 260400Z AUTO 08001KT 0900 0650 R29/0750D FG VV/// 03/03 Q1030 TEMPO 2000 BR
04:30
L
3 °C 600 m - 330° 330° 2 kt METAR LFSL 260330Z AUTO 33002KT 0650 0600 R29/0750U FG VV/// 03/03 Q1030 TEMPO 2000 BR
04:00
L
4 °C 650 m - Var Var 2 kt METAR LFSL 260300Z AUTO VRB02KT 0700 0650 R29/0700D FG VV/// 04/04 Q1030 TEMPO 2000 BR
03:30
L
2 °C 300 m - Var 000° 0 kt METAR LFSL 260230Z AUTO 00000KT 0300 R29/0325N FG VV/// 02/02 Q1030 TEMPO 2000 BR
03:00
L
2 °C 350 m - Var Var 1 kt METAR LFSL 260200Z AUTO VRB01KT 0350 R29/0400N FG VV/// 02/01 Q1030
02:30
L
1 °C 600 m - 310° 310° 1 kt METAR LFSL 260130Z AUTO 31001KT 0800 0600 R29/0700D FG VV/// 01/01 Q1030
02:00
L
2 °C 550 m - Var 000° 0 kt METAR LFSL 260100Z AUTO 00000KT 0550 R29/1000U FG VV/// 02/01 Q1030
01:30
L
2 °C 650 m - Var 000° 0 kt METAR LFSL 260030Z AUTO 00000KT 0650 R29/1000U FG VV/// 02/02 Q1030
01:00
L
2 °C 300 m - Var 000° 0 kt METAR LFSL 260000Z AUTO 00000KT 0300 R29/0350D FG VV/// 02/02 Q1030
00:30
L
2 °C 400 m - Var 000° 0 kt METAR LFSL 252330Z AUTO 00000KT 0450 0400 R29/0450N FG VV/// 02/02 Q1030
00:00
L
2 °C 400 m - Var 000° 0 kt METAR LFSL 252300Z AUTO 00000KT 0400 R29/0600U FG VV/// 02/02 Q1030

25 listopada 2022

Czas Kod Pogoda Temp. Widoczność Sufit Wiatr METAR/SPECI
23:30
L
2 °C 3,9 km 400 ft Var 000° 0 kt METAR LFSL 252230Z AUTO 00000KT 3900 BR BKN004 02/02 Q1029
23:00
V
3 °C 9 km - Var 000° 0 kt METAR LFSL 252200Z AUTO 00000KT 9000 SCT006 03/03 Q1029
22:30
L
4 °C 10 km+ - 240° 240° 1 kt METAR LFSL 252130Z AUTO 24001KT 9999 VV/// 04/03 Q1029
22:00
V
4 °C 8 km - Var 000° 0 kt METAR LFSL 252100Z AUTO 00000KT 8000 FEW020 04/04 Q1029 TEMPO 0800 FG VV///
21:30
M
5 °C 10 km+ 2.100 ft Var 000° 0 kt METAR LFSL 252030Z AUTO 00000KT 9999 FEW003 BKN021 05/04 Q1029 TEMPO 0800 FG VV///
21:00
V
5 °C 10 km+ - Var 000° 0 kt METAR LFSL 252000Z AUTO 00000KT 9999 FEW020 05/04 Q1028 BECMG 0800 FG VV///
20:30
M
5 °C 10 km+ 2.400 ft 290° 290° 2 kt METAR LFSL 251930Z AUTO 29002KT 9999 BKN024 05/05 Q1028 BECMG 0800 FG VV///
20:00
V
5 °C 10 km+ - 280° 280° 3 kt METAR LFSL 251900Z AUTO 28003KT 9999 FEW030 05/04 Q1027 BECMG 0800 FG VV///
19:30
V
5 °C 10 km+ - 300° 300° 2 kt METAR LFSL 251830Z AUTO 30002KT CAVOK 05/04 Q1026 BECMG 0800 FG VV///
19:00
V
5 °C 10 km+ - Var Var 1 kt METAR LFSL 251800Z AUTO VRB01KT CAVOK 05/05 Q1026 BECMG 0800 FG VV///
18:30
M
6 °C 5 km - 290° 290° 2 kt METAR LFSL 251730Z AUTO 29002KT 5000 BR NSC 06/05 Q1026 NOSIG
18:00
M
7 °C 5 km - Var 000° 0 kt METAR LFSL 251700Z AUTO 00000KT 5000 BR NSC 07/06 Q1025 TEMPO 30015G25KT SHRA BKN006 BKN025TCU
17:30
V
8 °C 10 km+ - 280° 280° 2 kt METAR LFSL 251630Z AUTO 28002KT 9999 FEW018 08/07 Q1025 TEMPO 30015G25KT BKN006 BKN025TCU BECMG 3000 BR
17:00
V
9 °C 10 km+ - 250° 250° 1 kt METAR LFSL 251600Z AUTO 25001KT 9999 FEW036 09/08 Q1025 TEMPO 30015G25KT 3000 SHRA BKN006 BKN025TCU
16:30
V
10 °C 10 km+ - 290° 290° 3 kt METAR LFSL 251530Z AUTO 29003KT 240V340 9999 FEW011/// SCT056/// ///CB 10/09 Q1024 TEMPO 30015G25KT 3000 SHRA BKN006 BKN025TCU
16:00
V
10 °C 10 km+ 4.500 ft 320° 320° 5 kt METAR LFSL 251500Z AUTO 32005KT 9999 FEW021/// BKN045/// OVC058/// //////TCU 10/09 Q1024 TEMPO 30015G25KT 3000 SHRA BKN006 BKN025TCU
15:30
M
10 °C 10 km+ 1.200 ft 330° 330° 7 kt METAR LFSL 251430Z AUTO 33007KT 290V010 9999 BKN012/// BKN024/// BKN035/// //////TCU 10/08 Q1024 TEMPO 30015G25KT 3000 SHRA BKN006 BKN025TCU
15:00
V
10 °C 10 km+ - 310° 310° 5 kt METAR LFSL 251400Z AUTO 31005KT 260V350 9999 FEW011/// SCT088/// //////TCU 10/09 Q1023 TEMPO 30015G25KT 3000 SHRA BKN006 BKN025TCU
14:30
V
10 °C 10 km+ 8.600 ft 270° 270° 5 kt METAR LFSL 251330Z AUTO 27005KT 240V310 9999 FEW023/// OVC086/// //////CB 10/09 Q1023 TEMPO 30015G25KT 3000 SHRA BKN006 BKN025TCU
14:00
V
10 °C 10 km+ 5.600 ft Var Var 3 kt METAR LFSL 251300Z AUTO VRB03KT 9999 SCT046/// BKN056/// OVC078/// //////CB 10/08 Q1023 TEMPO 30015G25KT 3000 SHRA BKN006 BKN025TCU
13:30
V
9 °C 10 km+ 4.200 ft 320° 320° 5 kt METAR LFSL 251230Z AUTO 32005KT 9999 -RA BKN042/// OVC050/// ///CB 09/08 Q1023 TEMPO 30015G25KT 3000 SHRA BKN006 BKN025TCU
13:00
I
9 °C 4,2 km 1.600 ft 300° 300° 15 kt METAR LFSL 251200Z AUTO 30015KT 4200 RA BR FEW007/// BKN016/// BKN027/// //////CB 09/08 Q1023 TEMPO NSW BECMG 28005KT
12:30
I
10 °C 10 km+ 500 ft 260° 260° 5 kt METAR LFSL 251130Z AUTO 26005KT 210V300 9999 -RA OVC005/// //////CB 10/09 Q1022 TEMPO 3000 -SHRA BKN025TCU
12:00
M
11 °C 10 km+ 1.700 ft 240° 240° 4 kt METAR LFSL 251100Z AUTO 24004KT 190V290 9999 FEW008/// SCT012/// BKN017/// ///CB 11/09 Q1022 TEMPO 3000 -SHRA
11:30
M
10 °C 10 km+ 1.800 ft Var Var 2 kt METAR LFSL 251030Z AUTO VRB02KT 9999 SCT007 OVC018 10/09 Q1022 TEMPO 3000 -SHRA BKN025TCU
11:00
I
10 °C 10 km+ 500 ft Var Var 3 kt METAR LFSL 251000Z AUTO VRB03KT 9999 BKN005 BKN013 OVC031 10/09 Q1021 TEMPO 3000 -SHRA BKN025TCU
10:30
L
10 °C 10 km+ 300 ft Var Var 3 kt METAR LFSL 250930Z AUTO VRB03KT 9999 BKN003 BKN029 OVC035 10/09 Q1021 TEMPO 3000 -SHRA BKN025TCU
10:00
L
10 °C 10 km+ 300 ft Var Var 2 kt METAR LFSL 250900Z AUTO VRB02KT 9999 BKN003/// BKN022/// BKN056/// //////TCU 10/09 Q1020 TEMPO 3000 -SHRA BKN004 SCT020CB
09:30
I
10 °C 10 km+ 500 ft Var Var 2 kt METAR LFSL 250830Z AUTO VRB02KT 9999 -RA OVC005/// ///CB 10/09 Q1020 TEMPO 3000 -SHRA BKN025TCU
09:00
M
9 °C 7 km 1.300 ft Var Var 1 kt METAR LFSL 250800Z AUTO VRB01KT 7000 -RA SCT006/// BKN013/// BKN019/// //////TCU 09/09 Q1020 TEMPO 3000 SHRA BKN004 SCT020CB
08:30
L
9 °C 4,1 km 400 ft Var Var 1 kt METAR LFSL 250730Z AUTO VRB01KT 4100 RA BR OVC004/// //////CB 09/09 Q1019 TEMPO NSW BKN005
08:00
L
9 °C 7 km 400 ft Var Var 2 kt METAR LFSL 250700Z AUTO VRB02KT 7000 -RA OVC004/// ///CB 09/09 Q1019 TEMPO 3000 -RA BKN005
07:30
I
9 °C 8 km 500 ft Var Var 2 kt METAR LFSL 250630Z AUTO VRB02KT 8000 -RA OVC005/// //////TCU 09/09 Q1018 TEMPO 3000 -RA BKN008
07:00
I
9 °C 10 km+ 500 ft Var Var 2 kt METAR LFSL 250600Z AUTO VRB02KT 9999 OVC005/// //////TCU 09/08 Q1018 TEMPO 3000 -RA BKN008
06:30
I
9 °C 10 km+ 700 ft Var Var 2 kt METAR LFSL 250530Z AUTO VRB02KT 9999 BKN007/// OVC012/// //////TCU 09/08 Q1017 TEMPO 3000 -RA BKN008
06:00
I
9 °C 10 km+ 800 ft Var Var 2 kt METAR LFSL 250500Z AUTO VRB02KT 9999 OVC008/// ///TCU 09/08 Q1017 TEMPO 3000 -RA BKN008
05:30
I
9 °C 10 km+ 900 ft Var Var 2 kt METAR LFSL 250430Z AUTO VRB02KT 9999 OVC009/// ///TCU 09/08 Q1017 TEMPO 3000 -RA BKN008
05:00
M
9 °C 10 km+ 1.100 ft 170° 170° 3 kt METAR LFSL 250400Z AUTO 17003KT 140V210 9999 BKN011 OVC047 09/08 Q1017 TEMPO 3000 -RA BKN008
04:30
M
9 °C 10 km+ 2.700 ft 180° 180° 4 kt METAR LFSL 250330Z AUTO 18004KT 150V210 9999 SCT013 BKN027 OVC045 09/08 Q1017 TEMPO 3000 -RA BKN008
04:00
M
9 °C 10 km+ 1.500 ft 190° 190° 3 kt METAR LFSL 250300Z AUTO 19003KT 140V220 9999 BKN015/// OVC021/// ///TCU 09/08 Q1017 TEMPO 3000 -RA BKN008
03:30
M
9 °C 10 km+ 1.900 ft 170° 170° 4 kt METAR LFSL 250230Z AUTO 17004KT 9999 BKN019/// BKN027/// OVC044/// //////TCU 09/08 Q1017
03:00
M
9 °C 10 km+ 2.100 ft 150° 150° 4 kt METAR LFSL 250200Z AUTO 15004KT 9999 BKN021/// OVC078/// ///TCU 09/08 Q1017
02:30
M
9 °C 10 km+ 2.300 ft Var Var 3 kt METAR LFSL 250130Z AUTO VRB03KT 9999 OVC023 09/08 Q1017
02:00
V
9 °C 10 km+ 4.700 ft 130° 130° 3 kt METAR LFSL 250100Z AUTO 13003KT 9999 FEW024 BKN047 OVC060 09/08 Q1016
01:30
V
9 °C 10 km+ 3.500 ft 140° 140° 3 kt METAR LFSL 250030Z AUTO 14003KT 110V180 9999 SCT029 BKN035 BKN052 09/08 Q1016
01:00
M
9 °C 10 km+ 2.800 ft 130° 130° 3 kt METAR LFSL 250000Z AUTO 13003KT 9999 OVC028 09/08 Q1016
00:30
V
10 °C 10 km+ 3.200 ft 140° 140° 4 kt METAR LFSL 242330Z AUTO 14004KT 9999 BKN032 BKN043 BKN052 10/08 Q1016
00:00
V
9 °C 10 km+ 4.900 ft 130° 130° 4 kt METAR LFSL 242300Z AUTO 13004KT 9999 FEW031 BKN049 OVC072 09/08 Q1016

24 listopada 2022

Czas Kod Pogoda Temp. Widoczność Sufit Wiatr METAR/SPECI
23:30
V
9 °C 10 km+ 4.900 ft 120° 120° 5 kt METAR LFSL 242230Z AUTO 12005KT 9999 FEW033 BKN049 BKN056 09/08 Q1016
23:00
V
9 °C 10 km+ 3.300 ft 140° 140° 4 kt METAR LFSL 242200Z AUTO 14004KT 9999 BKN033 OVC064 09/08 Q1016
22:30
V
9 °C 10 km+ 3.300 ft 140° 140° 3 kt METAR LFSL 242130Z AUTO 14003KT 9999 OVC033 09/08 Q1016
22:00
V
9 °C 10 km+ 3.400 ft Var Var 2 kt METAR LFSL 242100Z AUTO VRB02KT 9999 OVC034 09/08 Q1016 NOSIG
21:30
V
10 °C 10 km+ 3.400 ft Var Var 2 kt METAR LFSL 242030Z AUTO VRB02KT 9999 BKN034 OVC064 10/08 Q1015 NOSIG
21:00
V
10 °C 10 km+ 5.800 ft Var Var 3 kt METAR LFSL 242000Z AUTO VRB03KT 9999 FEW035 BKN058 OVC070 10/08 Q1015 NOSIG
20:30
V
10 °C 10 km+ 6.000 ft Var Var 2 kt METAR LFSL 241930Z AUTO VRB02KT 9999 FEW037 BKN060 BKN092 10/08 Q1015 NOSIG
20:00
V
11 °C 10 km+ 6.400 ft Var Var 2 kt METAR LFSL 241900Z AUTO VRB02KT 9999 SCT046 OVC064 11/08 Q1015 NOSIG
19:30
V
11 °C 10 km+ - Var Var 2 kt METAR LFSL 241830Z AUTO VRB02KT CAVOK 11/08 Q1015 NOSIG
19:00
V
11 °C 10 km+ - 160° 160° 4 kt METAR LFSL 241800Z AUTO 16004KT 110V180 CAVOK 11/08 Q1014 NOSIG
18:30
V
11 °C 10 km+ - 170° 170° 5 kt METAR LFSL 241730Z AUTO 17005KT 140V220 CAVOK 11/09 Q1014 NOSIG
18:00
V
11 °C 10 km+ - 150° 150° 5 kt METAR LFSL 241700Z AUTO 15005KT CAVOK 11/09 Q1014 NOSIG
17:30
V
11 °C 10 km+ - 140° 140° 5 kt METAR LFSL 241630Z AUTO 14005KT CAVOK 11/09 Q1014 NOSIG
17:00
V
11 °C 10 km+ - 140° 140° 6 kt METAR LFSL 241600Z AUTO 14006KT 110V170 CAVOK 11/09 Q1014 NOSIG
16:30
V
11 °C 10 km+ - 150° 150° 6 kt METAR LFSL 241530Z AUTO 15006KT 120V180 CAVOK 11/09 Q1014 NOSIG
16:00
V
11 °C 10 km+ - 150° 150° 6 kt METAR LFSL 241500Z AUTO 15006KT 120V180 CAVOK 11/09 Q1014 NOSIG
15:30
V
11 °C 10 km+ - 150° 150° 5 kt METAR LFSL 241430Z AUTO 15005KT 110V190 CAVOK 11/09 Q1015 TEMPO OVC010
15:00
V
11 °C 10 km+ - 160° 160° 7 kt METAR LFSL 241400Z AUTO 16007KT 130V190 CAVOK 11/09 Q1015 TEMPO OVC010
14:30
V
12 °C 10 km+ - 180° 180° 6 kt METAR LFSL 241330Z AUTO 18006KT 130V210 9999 SCT012 12/09 Q1015 TEMPO OVC010
14:00
M
11 °C 10 km+ 1.000 ft 140° 140° 8 kt METAR LFSL 241300Z AUTO 14008KT 9999 BKN010 BKN150 11/09 Q1015 NOSIG
13:30
I
11 °C 10 km+ 800 ft 150° 150° 9 kt METAR LFSL 241230Z AUTO 15009KT 110V210 9999 OVC008 11/09 Q1014 TEMPO OVC010
13:00
I
10 °C 10 km+ 600 ft 150° 150° 8 kt METAR LFSL 241200Z AUTO 15008KT 110V190 9999 OVC006 10/09 Q1016 TEMPO 1500 BR VV///
12:30
L
10 °C 10 km+ 400 ft 160° 160° 7 kt METAR LFSL 241130Z AUTO 16007KT 130V200 9999 OVC004 10/09 Q1016 TEMPO 1500 BR VV///
12:00
L
9 °C 9 km - 140° 140° 7 kt METAR LFSL 241100Z AUTO 14007KT 110V200 9000 VV/// 09/09 Q1016 TEMPO 1500 BR
11:30
L
9 °C 1,1 km - 130° 130° 8 kt METAR LFSL 241030Z AUTO 13008KT 100V170 1200 1100 R29/1500U BR VV/// 09/09 Q1017 BECMG CAVOK
11:00
L
8 °C 450 m - 130° 130° 8 kt METAR LFSL 241000Z AUTO 13008KT 0450 R29/0600D FG VV/// 08/08 Q1017 BECMG CAVOK

My i strony trzecie śledzimy Twoje zachowanie internetowe na naszej stronie za pomocą plików cookie. Jeśli kontynuujesz, zakładamy, że zgadzasz się z naszymi polityka plików cookie.